createdAt,value
2019-03-09T00:01:31.886Z,100047.19
2019-03-09T00:04:01.727Z,100045.62
2019-03-09T00:06:31.300Z,100048.47
2019-03-09T00:09:00.830Z,100045.22
2019-03-09T00:11:30.481Z,100046.56
2019-03-09T00:14:00.032Z,100041.23
2019-03-09T00:16:29.584Z,100046.30
2019-03-09T00:18:59.130Z,100046.98
2019-03-09T00:21:28.686Z,100047.36
2019-03-09T00:24:22.988Z,100043.39
2019-03-09T00:26:59.902Z,100038.69
2019-03-09T00:29:48.288Z,100037.41
2019-03-09T00:32:19.748Z,100031.73
2019-03-09T00:34:49.372Z,100034.09
2019-03-09T00:37:18.918Z,100030.34
2019-03-09T00:39:48.479Z,100029.49
2019-03-09T00:42:18.040Z,100023.95
2019-03-09T00:44:47.600Z,100032.97
2019-03-09T00:47:17.392Z,100029.21
2019-03-09T00:49:46.941Z,100030.54
2019-03-09T00:52:16.483Z,100025.14
2019-03-09T00:54:46.042Z,100026.59
2019-03-09T00:57:15.575Z,100027.09
2019-03-09T00:59:45.116Z,100024.09
2019-03-09T01:02:14.688Z,100023.06
2019-03-09T01:04:44.218Z,100023.79
2019-03-09T01:07:13.785Z,100030.78
2019-03-09T01:09:43.499Z,100029.39
2019-03-09T01:12:13.088Z,100035.39
2019-03-09T01:14:42.626Z,100038.34
2019-03-09T01:17:12.331Z,100033.02
2019-03-09T01:19:41.904Z,100036.78
2019-03-09T01:22:11.443Z,100042.19
2019-03-09T01:24:41.009Z,100040.23
2019-03-09T01:27:10.613Z,100043.61
2019-03-09T01:29:40.148Z,100045.42
2019-03-09T01:32:09.708Z,100045.61
2019-03-09T01:34:39.242Z,100042.11
2019-03-09T01:37:08.826Z,100040.59
2019-03-09T01:39:38.366Z,100044.44
2019-03-09T01:42:07.920Z,100041.59
2019-03-09T01:44:37.495Z,100049.31
2019-03-09T01:47:07.058Z,100047.97
2019-03-09T01:49:36.621Z,100053.33
2019-03-09T01:52:06.166Z,100049.30
2019-03-09T01:54:35.711Z,100056.19
2019-03-09T01:57:05.260Z,100050.98
2019-03-09T01:59:34.819Z,100049.98
2019-03-09T02:02:04.387Z,100052.69
2019-03-09T02:04:33.931Z,100053.03
2019-03-09T02:07:03.452Z,100049.66
2019-03-09T02:09:33.088Z,100054.67
2019-03-09T02:12:02.631Z,100057.36
2019-03-09T02:14:32.191Z,100064.08
2019-03-09T02:17:01.720Z,100057.05
2019-03-09T02:19:31.261Z,100066.26
2019-03-09T02:22:00.809Z,100069.45
2019-03-09T02:24:30.353Z,100077.18
2019-03-09T02:26:59.899Z,100075.17
2019-03-09T02:29:29.464Z,100075.01
2019-03-09T02:31:58.996Z,100079.20
2019-03-09T02:34:28.570Z,100075.69
2019-03-09T02:36:58.130Z,100074.14
2019-03-09T02:39:32.876Z,100076.66
2019-03-09T02:42:02.409Z,100075.83
2019-03-09T02:44:32.092Z,100074.16
2019-03-09T02:47:01.636Z,100076.34
2019-03-09T02:49:31.254Z,100076.67
2019-03-09T02:52:00.879Z,100082.38
2019-03-09T02:54:30.440Z,100091.28
2019-03-09T02:57:00.008Z,100093.97
2019-03-09T02:59:29.544Z,100096.50
2019-03-09T03:02:20.894Z,100099.48
2019-03-09T03:04:50.494Z,100099.98
2019-03-09T03:07:20.044Z,100099.34
2019-03-09T03:09:49.582Z,100096.67
2019-03-09T03:12:19.137Z,100100.69
2019-03-09T03:14:48.677Z,100103.36
2019-03-09T03:17:18.231Z,100107.57
2019-03-09T03:19:47.798Z,100110.76
2019-03-09T03:22:17.483Z,100114.77
2019-03-09T03:24:47.035Z,100119.45
2019-03-09T03:27:16.570Z,100125.31
2019-03-09T03:29:46.126Z,100127.47
2019-03-09T03:32:15.681Z,100124.78
2019-03-09T03:34:45.219Z,100128.30
2019-03-09T03:37:14.813Z,100131.14
2019-03-09T03:39:44.360Z,100128.09
2019-03-09T03:42:13.984Z,100138.17
2019-03-09T03:44:46.799Z,100139.52
2019-03-09T03:47:17.385Z,100139.16
2019-03-09T03:49:46.935Z,100138.66
2019-03-09T03:52:16.461Z,100136.48
2019-03-09T03:54:45.988Z,100134.64
2019-03-09T03:57:15.542Z,100133.80
2019-03-09T03:59:45.084Z,100140.17
2019-03-09T04:02:14.703Z,100142.84
2019-03-09T04:04:44.250Z,100142.84
2019-03-09T04:07:13.914Z,100147.72
2019-03-09T04:09:43.437Z,100145.84
2019-03-09T04:12:12.992Z,100145.83
2019-03-09T04:14:42.524Z,100142.61
2019-03-09T04:17:12.113Z,100146.63
2019-03-09T04:19:41.785Z,100157.89
2019-03-09T04:22:11.359Z,100163.60
2019-03-09T04:24:41.015Z,100166.94
2019-03-09T04:27:10.853Z,100165.94
2019-03-09T04:29:40.405Z,100171.46
2019-03-09T04:32:10.128Z,100172.23
2019-03-09T04:34:39.652Z,100169.91
2019-03-09T04:37:09.207Z,100178.94
2019-03-09T04:39:38.768Z,100181.47
2019-03-09T04:42:08.300Z,100189.02
2019-03-09T04:44:37.879Z,100187.30
2019-03-09T04:47:07.455Z,100193.34
2019-03-09T04:49:37.087Z,100197.06
2019-03-09T04:52:06.809Z,100195.72
2019-03-09T04:54:36.507Z,100195.72
2019-03-09T04:57:06.168Z,100201.81
2019-03-09T04:59:35.704Z,100201.16
2019-03-09T05:02:05.248Z,100205.06
2019-03-09T05:04:43.064Z,100210.80
2019-03-09T05:07:15.236Z,100217.03
2019-03-09T05:10:01.061Z,100232.85
2019-03-09T05:12:30.840Z,100242.64
2019-03-09T05:15:00.373Z,100240.30
2019-03-09T05:17:29.960Z,100246.21
2019-03-09T05:19:59.497Z,100228.59
2019-03-09T05:22:29.025Z,100238.35
2019-03-09T05:24:58.604Z,100243.42
2019-03-09T05:27:28.171Z,100254.20
2019-03-09T05:29:57.807Z,100265.98
2019-03-09T05:32:27.443Z,100269.00
2019-03-09T05:34:57.162Z,100273.38
2019-03-09T05:37:26.753Z,100274.37
2019-03-09T05:39:56.401Z,100270.85
2019-03-09T05:42:26.179Z,100278.42
2019-03-09T05:44:55.801Z,100278.91
2019-03-09T05:47:25.600Z,100280.85
2019-03-09T05:49:56.371Z,100287.86
2019-03-09T05:52:43.350Z,100290.45
2019-03-09T05:55:18.522Z,100294.77
2019-03-09T05:57:48.211Z,100292.80
2019-03-09T06:00:18.325Z,100295.32
2019-03-09T06:02:48.040Z,100299.47
2019-03-09T06:05:35.454Z,100299.98
2019-03-09T06:08:05.192Z,100308.77
2019-03-09T06:10:34.735Z,100308.33
2019-03-09T06:13:04.325Z,100311.91
2019-03-09T06:15:33.920Z,100312.15
2019-03-09T06:18:03.606Z,100304.29
2019-03-09T06:20:33.165Z,100310.56
2019-03-09T06:23:02.828Z,100310.63
2019-03-09T06:25:32.517Z,100303.44
2019-03-09T06:28:02.143Z,100314.02
2019-03-09T06:30:31.832Z,100310.52
2019-03-09T06:33:36.134Z,100308.80
2019-03-09T06:36:18.474Z,100318.78
2019-03-09T06:38:59.778Z,100320.94
2019-03-09T06:41:33.591Z,100319.61
2019-03-09T06:44:03.243Z,100318.83
2019-03-09T06:46:32.881Z,100325.11
2019-03-09T06:49:02.538Z,100319.42
2019-03-09T06:51:32.190Z,100324.97
2019-03-09T06:54:01.810Z,100328.73
2019-03-09T06:56:31.403Z,100326.55
2019-03-09T06:59:00.965Z,100321.38
2019-03-09T07:01:30.622Z,100324.20
2019-03-09T07:04:00.336Z,100335.91
2019-03-09T07:06:29.986Z,100335.91
2019-03-09T07:08:59.577Z,100348.02
2019-03-09T07:11:29.118Z,100346.82
2019-03-09T07:14:19.232Z,100353.77
2019-03-09T07:16:48.760Z,100353.75
2019-03-09T07:19:18.487Z,100358.36
2019-03-09T07:21:48.157Z,100352.74
2019-03-09T07:24:17.797Z,100355.95
2019-03-09T07:26:47.556Z,100368.40
2019-03-09T07:29:17.327Z,100374.16
2019-03-09T07:31:46.908Z,100382.91
2019-03-09T07:34:26.586Z,100385.53
2019-03-09T07:36:56.251Z,100384.42
2019-03-09T07:39:26.002Z,100377.77
2019-03-09T07:41:55.604Z,100376.73
2019-03-09T07:44:25.383Z,100380.29
2019-03-09T07:46:55.036Z,100373.86
2019-03-09T07:49:24.803Z,100372.27
2019-03-09T07:51:54.442Z,100376.12
2019-03-09T07:54:24.019Z,100384.30
2019-03-09T07:56:53.574Z,100371.66
2019-03-09T07:59:23.146Z,100378.59
2019-03-09T08:01:52.828Z,100382.50
2019-03-09T08:04:22.446Z,100382.93
2019-03-09T08:06:51.999Z,100383.11
2019-03-09T08:09:21.553Z,100388.12
2019-03-09T08:11:51.111Z,100384.91
2019-03-09T08:14:20.643Z,100386.28
2019-03-09T08:16:50.244Z,100390.11
2019-03-09T08:19:20.227Z,100382.87
2019-03-09T08:21:49.800Z,100389.94
2019-03-09T08:24:19.336Z,100393.58
2019-03-09T08:26:48.884Z,100392.66
2019-03-09T08:29:18.470Z,100395.84
2019-03-09T08:31:48.035Z,100400.47
2019-03-09T08:34:17.587Z,100391.66
2019-03-09T08:36:47.277Z,100390.08
2019-03-09T08:39:16.863Z,100393.82
2019-03-09T08:41:46.426Z,100385.87
2019-03-09T08:44:16.000Z,100388.42
2019-03-09T08:46:45.524Z,100386.16
2019-03-09T08:49:15.090Z,100381.79
2019-03-09T08:51:44.676Z,100378.49
2019-03-09T08:54:14.263Z,100372.78
2019-03-09T08:56:43.936Z,100382.54
2019-03-09T08:59:13.501Z,100381.98
2019-03-09T09:01:43.084Z,100381.95
2019-03-09T09:04:12.612Z,100379.69
2019-03-09T09:06:42.175Z,100374.91
2019-03-09T09:09:11.746Z,100379.75
2019-03-09T09:11:41.306Z,100378.57
2019-03-09T09:14:10.876Z,100377.55
2019-03-09T09:16:40.452Z,100369.98
2019-03-09T09:19:10.034Z,100370.61
2019-03-09T09:21:48.434Z,100374.61
2019-03-09T09:24:18.027Z,100373.61
2019-03-09T09:26:47.622Z,100369.38
2019-03-09T09:29:17.157Z,100368.64
2019-03-09T09:31:46.701Z,100362.91
2019-03-09T09:34:16.274Z,100373.78
2019-03-09T09:36:45.915Z,100373.39
2019-03-09T09:39:15.480Z,100357.01
2019-03-09T09:41:45.041Z,100373.98
2019-03-09T09:44:14.610Z,100359.81
2019-03-09T09:46:44.166Z,100357.55
2019-03-09T09:49:13.745Z,100365.53
2019-03-09T09:51:43.270Z,100357.20
2019-03-09T09:54:12.825Z,100356.45
2019-03-09T09:56:42.378Z,100357.14
2019-03-09T09:59:11.906Z,100347.66
2019-03-09T10:01:41.423Z,100345.91
2019-03-09T10:04:10.994Z,100342.31
2019-03-09T10:06:40.541Z,100342.44
2019-03-09T10:09:10.069Z,100333.03
2019-03-09T10:11:39.606Z,100329.84
2019-03-09T10:14:09.159Z,100333.14
2019-03-09T10:16:38.696Z,100324.80
2019-03-09T10:19:08.242Z,100317.92
2019-03-09T10:21:37.794Z,100320.67
2019-03-09T10:24:07.344Z,100313.86
2019-03-09T10:26:36.916Z,100321.30
2019-03-09T10:29:06.448Z,100309.77
2019-03-09T10:31:36.061Z,100309.03
2019-03-09T10:34:05.587Z,100308.23
2019-03-09T10:36:35.131Z,100307.09
2019-03-09T10:39:05.868Z,100298.45
2019-03-09T10:41:35.434Z,100290.23
2019-03-09T10:44:04.990Z,100290.84
2019-03-09T10:46:34.563Z,100283.55
2019-03-09T10:49:04.131Z,100279.68
2019-03-09T10:51:33.702Z,100280.67
2019-03-09T10:54:03.340Z,100277.94
2019-03-09T10:56:32.923Z,100276.25
2019-03-09T10:59:02.589Z,100267.23
2019-03-09T11:01:32.276Z,100261.10
2019-03-09T11:04:01.845Z,100255.34
2019-03-09T11:06:31.479Z,100257.46
2019-03-09T11:09:01.143Z,100257.29
2019-03-09T11:11:30.803Z,100245.59
2019-03-09T11:14:00.343Z,100248.22
2019-03-09T11:16:29.914Z,100244.41
2019-03-09T11:18:59.492Z,100236.13
2019-03-09T11:21:29.161Z,100229.84
2019-03-09T11:23:58.720Z,100229.66
2019-03-09T11:26:28.256Z,100224.64
2019-03-09T11:28:57.858Z,100222.81
2019-03-09T11:31:27.475Z,100214.94
2019-03-09T11:33:57.165Z,100204.94
2019-03-09T11:36:26.721Z,100199.17
2019-03-09T11:38:56.263Z,100199.23
2019-03-09T11:41:25.836Z,100189.59
2019-03-09T11:43:55.507Z,100193.61
2019-03-09T11:46:25.241Z,100183.89
2019-03-09T11:48:54.782Z,100176.63
2019-03-09T11:51:24.442Z,100177.22
2019-03-09T11:53:54.013Z,100173.62
2019-03-09T11:56:23.570Z,100167.67
2019-03-09T11:58:53.104Z,100157.77
2019-03-09T12:01:22.790Z,100158.67
2019-03-09T12:03:52.378Z,100152.88
2019-03-09T12:06:21.998Z,100147.47
2019-03-09T12:08:51.583Z,100142.53
2019-03-09T12:11:21.313Z,100136.39
2019-03-09T12:13:50.933Z,100133.63
2019-03-09T12:16:20.704Z,100122.20
2019-03-09T12:18:50.328Z,100129.23
2019-03-09T12:21:19.981Z,100131.14
2019-03-09T12:23:49.537Z,100115.41
2019-03-09T12:26:19.449Z,100122.56
2019-03-09T12:28:48.994Z,100114.02
2019-03-09T12:31:18.686Z,100116.52
2019-03-09T12:33:48.383Z,100104.37
2019-03-09T12:36:18.032Z,100094.49
2019-03-09T12:38:47.557Z,100086.16
2019-03-09T12:41:17.222Z,100093.71
2019-03-09T12:43:46.793Z,100095.78
2019-03-09T12:46:16.433Z,100091.36
2019-03-09T12:48:46.223Z,100085.91
2019-03-09T12:51:15.934Z,100087.48
2019-03-09T12:53:45.529Z,100088.69
2019-03-09T12:56:15.083Z,100086.39
2019-03-09T12:58:46.217Z,100080.24
2019-03-09T13:01:16.098Z,100077.64
2019-03-09T13:03:45.686Z,100072.16
2019-03-09T13:06:15.219Z,100067.04
2019-03-09T13:08:44.763Z,100065.11
2019-03-09T13:11:14.433Z,100056.47
2019-03-09T13:13:44.127Z,100053.50
2019-03-09T13:16:13.689Z,100053.63
2019-03-09T13:18:43.246Z,100049.74
2019-03-09T13:21:12.804Z,100044.27
2019-03-09T13:23:42.345Z,100038.66
2019-03-09T13:26:11.934Z,100046.38
2019-03-09T13:28:41.521Z,100045.36
2019-03-09T13:31:11.210Z,100045.66
2019-03-09T13:33:40.895Z,100043.16
2019-03-09T13:36:10.498Z,100040.61
2019-03-09T13:38:40.157Z,100047.65
2019-03-09T13:41:09.949Z,100047.35
2019-03-09T13:43:39.733Z,100051.91
2019-03-09T13:46:09.266Z,100049.46
2019-03-09T13:48:38.819Z,100041.84
2019-03-09T13:51:08.377Z,100039.39
2019-03-09T13:53:37.926Z,100032.66
2019-03-09T13:56:07.479Z,100028.25
2019-03-09T13:58:37.105Z,100027.09
2019-03-09T14:01:06.656Z,100023.09
2019-03-09T14:03:36.210Z,100027.05
2019-03-09T14:06:05.748Z,100029.16
2019-03-09T14:08:35.338Z,100027.44
2019-03-09T14:11:04.936Z,100023.19
2019-03-09T14:13:34.588Z,100019.62
2019-03-09T14:16:04.148Z,100020.39
2019-03-09T14:18:33.691Z,100018.42
2019-03-09T14:21:03.222Z,100012.36
2019-03-09T14:23:32.816Z,100016.42
2019-03-09T14:26:02.409Z,100019.96
2019-03-09T14:28:31.949Z,100011.76
2019-03-09T14:31:01.532Z,100006.36
2019-03-09T14:33:31.099Z,100006.80
2019-03-09T14:36:00.729Z,100002.64
2019-03-09T14:38:30.386Z,100000.88
2019-03-09T14:40:59.995Z,100006.87
2019-03-09T14:43:29.749Z,100005.38
2019-03-09T14:45:59.439Z,99997.78
2019-03-09T14:48:28.982Z,99998.85
2019-03-09T14:50:58.523Z,99999.98
2019-03-09T14:53:28.169Z,99996.59
2019-03-09T14:55:57.745Z,100001.05
2019-03-09T14:58:27.290Z,100000.88
2019-03-09T15:00:56.821Z,99994.08
2019-03-09T15:03:26.445Z,99997.02
2019-03-09T15:05:55.993Z,99997.92
2019-03-09T15:08:25.602Z,99986.41
2019-03-09T15:10:55.218Z,99978.08
2019-03-09T15:13:24.809Z,99980.51
2019-03-09T15:15:54.393Z,99972.27
2019-03-09T15:18:23.916Z,99959.61
2019-03-09T15:20:53.473Z,99967.62
2019-03-09T15:23:23.155Z,99972.08
2019-03-09T15:25:52.726Z,99962.87
2019-03-09T15:28:22.330Z,99964.81
2019-03-09T15:30:51.963Z,99971.15
2019-03-09T15:33:22.056Z,99969.94
2019-03-09T15:35:51.755Z,99973.16
2019-03-09T15:38:21.382Z,99975.03
2019-03-09T15:40:51.019Z,99970.97
2019-03-09T15:43:20.692Z,99970.37
2019-03-09T15:45:50.368Z,99973.48
2019-03-09T15:48:20.034Z,99972.97
2019-03-09T15:50:49.576Z,99975.34
2019-03-09T15:53:19.094Z,99975.98
2019-03-09T15:55:48.770Z,99969.30
2019-03-09T15:58:18.343Z,99966.73
2019-03-09T16:00:47.992Z,99962.03
2019-03-09T16:03:17.580Z,99970.39
2019-03-09T16:05:47.225Z,99962.37
2019-03-09T16:08:16.794Z,99961.23
2019-03-09T16:10:46.598Z,99976.75
2019-03-09T16:13:16.192Z,99982.09
2019-03-09T16:15:45.899Z,99978.44
2019-03-09T16:18:15.562Z,99980.54
2019-03-09T16:20:45.090Z,99978.52
2019-03-09T16:23:14.667Z,99976.38
2019-03-09T16:25:44.285Z,99977.11
2019-03-09T16:28:13.844Z,99983.02
2019-03-09T16:30:43.590Z,99983.80
2019-03-09T16:33:13.186Z,99987.80
2019-03-09T16:35:42.731Z,99994.94
2019-03-09T16:38:12.314Z,99998.00
2019-03-09T16:40:41.884Z,99995.83
2019-03-09T16:43:11.591Z,100004.59
2019-03-09T16:45:41.409Z,100004.84
2019-03-09T16:48:10.964Z,100003.39
2019-03-09T16:50:40.655Z,100013.62
2019-03-09T16:53:10.199Z,100013.21
2019-03-09T16:55:39.749Z,100019.48
2019-03-09T16:58:09.462Z,100017.89
2019-03-09T17:00:38.987Z,100020.61
2019-03-09T17:03:08.558Z,100023.66
2019-03-09T17:05:38.116Z,100022.38
2019-03-09T17:08:07.663Z,100020.30
2019-03-09T17:10:37.239Z,100017.80
2019-03-09T17:13:06.794Z,100015.49
2019-03-09T17:15:36.358Z,100018.64
2019-03-09T17:18:05.904Z,100019.16
2019-03-09T17:20:35.495Z,100021.97
2019-03-09T17:23:05.157Z,100023.84
2019-03-09T17:25:34.719Z,100017.58
2019-03-09T17:28:04.259Z,100023.89
2019-03-09T17:30:34.265Z,100027.76
2019-03-09T17:33:03.817Z,100031.39
2019-03-09T17:35:33.718Z,100030.47
2019-03-09T17:38:03.371Z,100035.72
2019-03-09T17:40:33.107Z,100031.91
2019-03-09T17:43:02.680Z,100039.34
2019-03-09T17:45:32.321Z,100034.21
2019-03-09T17:48:01.859Z,100029.11
2019-03-09T17:50:31.660Z,100027.41
2019-03-09T17:53:01.359Z,100023.97
2019-03-09T17:55:31.140Z,100022.30
2019-03-09T17:58:00.724Z,100019.63
2019-03-09T18:00:41.817Z,100020.86
2019-03-09T18:03:02.758Z,100014.95
2019-03-09T18:05:32.342Z,100018.53
2019-03-09T18:08:01.887Z,100019.77
2019-03-09T18:10:35.381Z,100014.47
2019-03-09T18:13:04.949Z,100012.88
2019-03-09T18:15:34.509Z,100016.31
2019-03-09T18:18:04.047Z,100017.58
2019-03-09T18:20:33.634Z,100011.32
2019-03-09T18:23:05.141Z,100008.93
2019-03-09T18:25:35.017Z,100006.39
2019-03-09T18:28:04.566Z,100004.92
2019-03-09T18:30:37.902Z,100002.20
2019-03-09T18:33:07.477Z,100003.13
2019-03-09T18:35:38.962Z,100005.60
2019-03-09T18:38:08.549Z,100007.27
2019-03-09T18:40:39.430Z,100009.00
2019-03-09T18:43:09.168Z,100006.69
2019-03-09T18:45:38.890Z,100006.23
2019-03-09T18:48:08.653Z,100009.25
2019-03-09T18:50:38.254Z,100007.45
2019-03-09T18:53:08.183Z,100012.55
2019-03-09T18:55:38.074Z,100017.95
2019-03-09T18:58:07.624Z,100024.98
2019-03-09T19:00:37.259Z,100021.09
2019-03-09T19:03:06.771Z,100023.66
2019-03-09T19:05:36.415Z,100028.01
2019-03-09T19:08:05.959Z,100027.33
2019-03-09T19:10:35.536Z,100027.46
2019-03-09T19:13:05.179Z,100025.47
2019-03-09T19:15:34.735Z,100029.75
2019-03-09T19:18:04.265Z,100037.64
2019-03-09T19:20:33.803Z,100031.27
2019-03-09T19:23:03.354Z,100030.20
2019-03-09T19:25:33.008Z,100029.42
2019-03-09T19:28:02.555Z,100030.22
2019-03-09T19:30:32.208Z,100033.78
2019-03-09T19:33:01.769Z,100041.34
2019-03-09T19:35:31.325Z,100049.88
2019-03-09T19:38:00.926Z,100047.97
2019-03-09T19:40:30.573Z,100045.92
2019-03-09T19:43:00.232Z,100043.30
2019-03-09T19:45:29.784Z,100051.08
2019-03-09T19:47:59.442Z,100054.98
2019-03-09T19:50:29.029Z,100057.50
2019-03-09T19:52:59.239Z,100058.99
2019-03-09T19:55:29.060Z,100065.43
2019-03-09T19:57:58.705Z,100067.27
2019-03-09T20:00:28.307Z,100065.08
2019-03-09T20:02:57.857Z,100067.08
2019-03-09T20:05:27.455Z,100065.91
2019-03-09T20:07:57.017Z,100063.76
2019-03-09T20:10:26.599Z,100070.64
2019-03-09T20:12:56.158Z,100068.11
2019-03-09T20:15:25.763Z,100072.45
2019-03-09T20:17:55.364Z,100073.88
2019-03-09T20:20:24.956Z,100077.95
2019-03-09T20:22:54.524Z,100083.34
2019-03-09T20:25:24.262Z,100078.53
2019-03-09T20:27:53.929Z,100078.46
2019-03-09T20:30:23.600Z,100081.63
2019-03-09T20:32:53.168Z,100084.34
2019-03-09T20:35:22.724Z,100077.64
2019-03-09T20:37:52.549Z,100090.80
2019-03-09T20:40:22.474Z,100087.13
2019-03-09T20:42:52.074Z,100093.05
2019-03-09T20:45:21.754Z,100086.41
2019-03-09T20:47:51.446Z,100080.59
2019-03-09T20:50:22.456Z,100088.09
2019-03-09T20:52:52.099Z,100085.82
2019-03-09T20:55:22.360Z,100090.93
2019-03-09T20:57:52.624Z,100080.63
2019-03-09T21:00:22.276Z,100073.58
2019-03-09T21:02:52.042Z,100064.22
2019-03-09T21:05:22.619Z,100056.61
2019-03-09T21:07:52.830Z,100055.45
2019-03-09T21:10:23.066Z,100044.16
2019-03-09T21:13:03.879Z,100032.17
2019-03-09T21:15:33.427Z,100028.11
2019-03-09T21:18:02.976Z,100050.80
2019-03-09T21:20:32.508Z,100050.16
2019-03-09T21:23:02.070Z,100038.83
2019-03-09T21:25:31.663Z,100034.40
2019-03-09T21:28:01.274Z,100018.06
2019-03-09T21:30:30.792Z,100007.84
2019-03-09T21:33:00.422Z,100002.56
2019-03-09T21:35:30.077Z,100008.29
2019-03-09T21:37:59.675Z,100008.27
2019-03-09T21:40:29.237Z,99998.20
2019-03-09T21:42:58.819Z,99990.84
2019-03-09T21:45:28.460Z,99998.09
2019-03-09T21:47:58.074Z,100003.35
2019-03-09T21:50:27.639Z,100010.80
2019-03-09T21:52:57.214Z,100008.28
2019-03-09T21:55:26.764Z,100007.58
2019-03-09T21:57:56.365Z,100009.33
2019-03-09T22:00:26.011Z,100003.31
2019-03-09T22:02:55.581Z,99995.70
2019-03-09T22:05:25.220Z,99999.23
2019-03-09T22:07:55.862Z,100001.19
2019-03-09T22:10:25.672Z,99998.67
2019-03-09T22:12:55.241Z,99994.04
2019-03-09T22:15:24.885Z,99982.30
2019-03-09T22:17:54.455Z,99982.58
2019-03-09T22:20:24.092Z,99975.91
2019-03-09T22:22:53.689Z,99974.86
2019-03-09T22:25:23.292Z,99970.58
2019-03-09T22:27:52.847Z,99965.07
2019-03-09T22:30:22.420Z,99954.23
2019-03-09T22:32:51.938Z,99955.81
2019-03-09T22:35:21.518Z,99951.62
2019-03-09T22:37:51.060Z,99943.51
2019-03-09T22:40:20.707Z,99935.06
2019-03-09T22:42:50.233Z,99937.69
2019-03-09T22:45:19.775Z,99927.56
2019-03-09T22:47:49.310Z,99930.92
2019-03-09T22:50:18.902Z,99930.13
2019-03-09T22:52:48.539Z,99924.59
2019-03-09T22:55:18.078Z,99923.56
2019-03-09T22:57:47.623Z,99922.91
2019-03-09T23:00:18.083Z,99920.30
2019-03-09T23:02:47.620Z,99923.71
2019-03-09T23:05:17.291Z,99926.45
2019-03-09T23:07:46.861Z,99920.91
2019-03-09T23:10:16.923Z,99919.41
2019-03-09T23:12:46.534Z,99913.36
2019-03-09T23:15:16.428Z,99909.97
2019-03-09T23:20:13.845Z,99897.92
2019-03-09T23:22:43.370Z,99898.17
2019-03-09T23:25:12.991Z,99897.16
2019-03-09T23:27:42.540Z,99905.45
2019-03-09T23:30:17.017Z,99904.09
2019-03-09T23:32:46.547Z,99908.42
2019-03-09T23:35:16.162Z,99898.34
2019-03-09T23:37:45.773Z,99905.80
2019-03-09T23:40:15.850Z,99898.83
2019-03-09T23:42:45.393Z,99908.41
2019-03-09T23:45:15.557Z,99903.74
2019-03-09T23:47:45.134Z,99907.89
2019-03-09T23:50:15.491Z,99898.72
2019-03-09T23:52:45.042Z,99900.45
2019-03-09T23:55:22.025Z,99899.74
2019-03-09T23:57:45.882Z,99909.52
